sensor_id;sensor_type;location;lat;lon;timestamp;temperature;humidity
39899;DHT22;25571;47.876;10.642;2023-05-29T00:00:13;11.00;95.50
39899;DHT22;25571;47.876;10.642;2023-05-29T00:02:41;11.00;95.60
39899;DHT22;25571;47.876;10.642;2023-05-29T00:05:10;11.00;95.50
39899;DHT22;25571;47.876;10.642;2023-05-29T00:07:37;10.90;95.70
39899;DHT22;25571;47.876;10.642;2023-05-29T00:10:03;10.90;96.00
39899;DHT22;25571;47.876;10.642;2023-05-29T00:12:29;10.90;96.30
39899;DHT22;25571;47.876;10.642;2023-05-29T00:14:54;10.70;96.80
39899;DHT22;25571;47.876;10.642;2023-05-29T00:17:20;10.70;96.90
39899;DHT22;25571;47.876;10.642;2023-05-29T00:19:46;10.70;96.90
39899;DHT22;25571;47.876;10.642;2023-05-29T00:22:12;10.60;97.10
39899;DHT22;25571;47.876;10.642;2023-05-29T00:24:38;10.60;97.30
39899;DHT22;25571;47.876;10.642;2023-05-29T00:27:03;10.60;97.70
39899;DHT22;25571;47.876;10.642;2023-05-29T00:29:29;10.60;97.80
39899;DHT22;25571;47.876;10.642;2023-05-29T00:31:56;10.60;97.90
39899;DHT22;25571;47.876;10.642;2023-05-29T00:34:22;10.60;98.10
39899;DHT22;25571;47.876;10.642;2023-05-29T00:36:51;10.50;98.20
39899;DHT22;25571;47.876;10.642;2023-05-29T00:39:17;10.50;98.50
39899;DHT22;25571;47.876;10.642;2023-05-29T00:41:43;10.50;98.40
39899;DHT22;25571;47.876;10.642;2023-05-29T00:44:08;10.50;98.40
39899;DHT22;25571;47.876;10.642;2023-05-29T00:46:34;10.60;98.80
39899;DHT22;25571;47.876;10.642;2023-05-29T00:49:00;10.50;98.50
39899;DHT22;25571;47.876;10.642;2023-05-29T00:51:27;10.50;98.80
39899;DHT22;25571;47.876;10.642;2023-05-29T00:53:53;10.40;99.00
39899;DHT22;25571;47.876;10.642;2023-05-29T00:56:20;10.50;99.10
39899;DHT22;25571;47.876;10.642;2023-05-29T00:58:48;10.40;99.30
39899;DHT22;25571;47.876;10.642;2023-05-29T01:01:16;10.40;99.60
39899;DHT22;25571;47.876;10.642;2023-05-29T01:03:42;10.30;99.70
39899;DHT22;25571;47.876;10.642;2023-05-29T01:06:08;10.20;99.90
39899;DHT22;25571;47.876;10.642;2023-05-29T01:08:35;10.20;99.90
39899;DHT22;25571;47.876;10.642;2023-05-29T01:13:40;10.10;99.90
39899;DHT22;25571;47.876;10.642;2023-05-29T01:16:34;10.00;99.90
39899;DHT22;25571;47.876;10.642;2023-05-29T01:22:13;10.00;99.90
39899;DHT22;25571;47.876;10.642;2023-05-29T01:24:48;9.90;99.90
39899;DHT22;25571;47.876;10.642;2023-05-29T01:27:17;9.90;99.90
39899;DHT22;25571;47.876;10.642;2023-05-29T01:29:43;9.80;99.90
39899;DHT22;25571;47.876;10.642;2023-05-29T01:32:09;9.80;99.90
39899;DHT22;25571;47.876;10.642;2023-05-29T01:34:35;9.80;99.90
39899;DHT22;25571;47.876;10.642;2023-05-29T01:37:01;9.80;99.90
39899;DHT22;25571;47.876;10.642;2023-05-29T01:39:26;9.80;99.90
39899;DHT22;25571;47.876;10.642;2023-05-29T01:41:53;9.90;99.90
39899;DHT22;25571;47.876;10.642;2023-05-29T01:44:20;9.80;99.90
39899;DHT22;25571;47.876;10.642;2023-05-29T01:46:47;9.80;99.90
39899;DHT22;25571;47.876;10.642;2023-05-29T01:49:13;9.70;99.90
39899;DHT22;25571;47.876;10.642;2023-05-29T01:51:40;9.70;99.90
39899;DHT22;25571;47.876;10.642;2023-05-29T01:54:06;9.70;99.90
39899;DHT22;25571;47.876;10.642;2023-05-29T01:56:32;9.70;99.90
39899;DHT22;25571;47.876;10.642;2023-05-29T01:58:59;9.60;99.90
39899;DHT22;25571;47.876;10.642;2023-05-29T02:01:26;9.60;99.90
39899;DHT22;25571;47.876;10.642;2023-05-29T02:03:52;9.60;99.90
39899;DHT22;25571;47.876;10.642;2023-05-29T02:06:18;9.60;99.90
39899;DHT22;25571;47.876;10.642;2023-05-29T02:08:43;9.50;99.90
39899;DHT22;25571;47.876;10.642;2023-05-29T02:11:09;9.50;99.90
39899;DHT22;25571;47.876;10.642;2023-05-29T02:13:35;9.50;99.90
39899;DHT22;25571;47.876;10.642;2023-05-29T02:16:00;9.50;99.90
39899;DHT22;25571;47.876;10.642;2023-05-29T02:18:26;9.40;99.90
39899;DHT22;25571;47.876;10.642;2023-05-29T02:20:51;9.40;99.90
39899;DHT22;25571;47.876;10.642;2023-05-29T02:23:17;9.40;99.90
39899;DHT22;25571;47.876;10.642;2023-05-29T02:25:44;9.40;99.90
39899;DHT22;25571;47.876;10.642;2023-05-29T02:28:10;9.50;99.90
39899;DHT22;25571;47.876;10.642;2023-05-29T02:30:35;9.40;99.90
39899;DHT22;25571;47.876;10.642;2023-05-29T02:33:01;9.40;99.90
39899;DHT22;25571;47.876;10.642;2023-05-29T02:35:27;9.40;99.90
39899;DHT22;25571;47.876;10.642;2023-05-29T02:37:53;9.40;99.90
39899;DHT22;25571;47.876;10.642;2023-05-29T02:40:19;9.40;99.90
39899;DHT22;25571;47.876;10.642;2023-05-29T02:42:45;9.30;99.90
39899;DHT22;25571;47.876;10.642;2023-05-29T02:45:11;9.30;99.90
39899;DHT22;25571;47.876;10.642;2023-05-29T02:47:38;9.30;99.90
39899;DHT22;25571;47.876;10.642;2023-05-29T02:50:04;9.20;99.90
39899;DHT22;25571;47.876;10.642;2023-05-29T02:52:31;9.30;99.90
39899;DHT22;25571;47.876;10.642;2023-05-29T02:54:57;9.20;99.90
39899;DHT22;25571;47.876;10.642;2023-05-29T02:57:24;9.20;99.90
39899;DHT22;25571;47.876;10.642;2023-05-29T02:59:49;9.30;99.90
39899;DHT22;25571;47.876;10.642;2023-05-29T03:02:15;9.20;99.90
39899;DHT22;25571;47.876;10.642;2023-05-29T03:04:41;9.20;99.90
39899;DHT22;25571;47.876;10.642;2023-05-29T03:07:06;9.20;99.90
39899;DHT22;25571;47.876;10.642;2023-05-29T03:09:32;9.20;99.90
39899;DHT22;25571;47.876;10.642;2023-05-29T03:11:58;9.20;99.90
39899;DHT22;25571;47.876;10.642;2023-05-29T03:14:26;9.20;99.90
39899;DHT22;25571;47.876;10.642;2023-05-29T03:16:52;9.10;99.90
39899;DHT22;25571;47.876;10.642;2023-05-29T03:19:18;9.10;99.90
39899;DHT22;25571;47.876;10.642;2023-05-29T03:21:44;9.10;99.90
39899;DHT22;25571;47.876;10.642;2023-05-29T03:24:10;9.20;99.90
39899;DHT22;25571;47.876;10.642;2023-05-29T03:26:36;9.10;99.90
39899;DHT22;25571;47.876;10.642;2023-05-29T03:29:02;9.10;99.90
39899;DHT22;25571;47.876;10.642;2023-05-29T03:31:28;9.10;99.90
39899;DHT22;25571;47.876;10.642;2023-05-29T03:33:53;9.20;99.90
39899;DHT22;25571;47.876;10.642;2023-05-29T03:36:19;9.20;99.90
39899;DHT22;25571;47.876;10.642;2023-05-29T03:38:44;9.20;99.90
39899;DHT22;25571;47.876;10.642;2023-05-29T03:41:10;9.20;99.90
39899;DHT22;25571;47.876;10.642;2023-05-29T03:43:36;9.20;99.90
39899;DHT22;25571;47.876;10.642;2023-05-29T03:46:01;9.10;99.90
39899;DHT22;25571;47.876;10.642;2023-05-29T03:48:27;9.20;99.90
39899;DHT22;25571;47.876;10.642;2023-05-29T03:50:53;9.20;99.90
39899;DHT22;25571;47.876;10.642;2023-05-29T03:53:18;9.20;99.90
39899;DHT22;25571;47.876;10.642;2023-05-29T03:55:44;9.20;99.90
39899;DHT22;25571;47.876;10.642;2023-05-29T03:58:09;9.20;99.90
39899;DHT22;25571;47.876;10.642;2023-05-29T04:00:38;9.20;99.90
39899;DHT22;25571;47.876;10.642;2023-05-29T04:03:03;9.30;99.90
39899;DHT22;25571;47.876;10.642;2023-05-29T04:05:29;9.30;99.90
39899;DHT22;25571;47.876;10.642;2023-05-29T04:07:55;9.30;99.90
39899;DHT22;25571;47.876;10.642;2023-05-29T04:10:21;9.30;99.90
39899;DHT22;25571;47.876;10.642;2023-05-29T04:12:46;9.30;99.90
39899;DHT22;25571;47.876;10.642;2023-05-29T04:15:12;9.30;99.90
39899;DHT22;25571;47.876;10.642;2023-05-29T04:17:37;9.40;99.90
39899;DHT22;25571;47.876;10.642;2023-05-29T04:20:03;9.40;99.90
39899;DHT22;25571;47.876;10.642;2023-05-29T04:22:35;9.40;99.90
39899;DHT22;25571;47.876;10.642;2023-05-29T04:25:01;9.50;99.90
39899;DHT22;25571;47.876;10.642;2023-05-29T04:27:26;9.50;99.90
39899;DHT22;25571;47.876;10.642;2023-05-29T04:29:52;9.50;99.90
39899;DHT22;25571;47.876;10.642;2023-05-29T04:32:19;9.50;99.90
39899;DHT22;25571;47.876;10.642;2023-05-29T04:34:44;9.60;99.90
39899;DHT22;25571;47.876;10.642;2023-05-29T04:37:10;9.60;99.90
39899;DHT22;25571;47.876;10.642;2023-05-29T04:39:35;9.70;99.90
39899;DHT22;25571;47.876;10.642;2023-05-29T04:42:01;9.70;99.90
39899;DHT22;25571;47.876;10.642;2023-05-29T04:44:27;9.80;99.90
39899;DHT22;25571;47.876;10.642;2023-05-29T04:46:54;9.90;99.90
39899;DHT22;25571;47.876;10.642;2023-05-29T04:49:20;9.90;99.90
39899;DHT22;25571;47.876;10.642;2023-05-29T04:51:47;10.10;99.90
39899;DHT22;25571;47.876;10.642;2023-05-29T04:54:12;10.20;99.90
39899;DHT22;25571;47.876;10.642;2023-05-29T04:56:38;10.30;99.90
39899;DHT22;25571;47.876;10.642;2023-05-29T04:59:07;10.40;99.90
39899;DHT22;25571;47.876;10.642;2023-05-29T05:01:33;10.60;99.90
39899;DHT22;25571;47.876;10.642;2023-05-29T05:03:59;10.80;99.90
39899;DHT22;25571;47.876;10.642;2023-05-29T05:06:25;10.90;99.90
39899;DHT22;25571;47.876;10.642;2023-05-29T05:08:51;11.00;99.90
39899;DHT22;25571;47.876;10.642;2023-05-29T05:11:18;11.10;99.90
39899;DHT22;25571;47.876;10.642;2023-05-29T05:13:44;11.20;99.90
39899;DHT22;25571;47.876;10.642;2023-05-29T05:16:09;11.30;99.90
39899;DHT22;25571;47.876;10.642;2023-05-29T05:18:36;11.40;99.90
39899;DHT22;25571;47.876;10.642;2023-05-29T05:21:01;11.50;99.90
39899;DHT22;25571;47.876;10.642;2023-05-29T05:23:29;11.70;99.90
39899;DHT22;25571;47.876;10.642;2023-05-29T05:25:55;11.80;99.90
39899;DHT22;25571;47.876;10.642;2023-05-29T05:28:21;12.00;99.90
39899;DHT22;25571;47.876;10.642;2023-05-29T05:30:46;12.10;99.90
39899;DHT22;25571;47.876;10.642;2023-05-29T05:33:12;12.30;99.90
39899;DHT22;25571;47.876;10.642;2023-05-29T05:35:38;12.30;99.90
39899;DHT22;25571;47.876;10.642;2023-05-29T05:38:04;12.50;99.90
39899;DHT22;25571;47.876;10.642;2023-05-29T05:40:29;12.60;99.90
39899;DHT22;25571;47.876;10.642;2023-05-29T05:42:55;12.80;99.90
39899;DHT22;25571;47.876;10.642;2023-05-29T05:45:21;13.00;99.90
39899;DHT22;25571;47.876;10.642;2023-05-29T05:47:47;13.30;99.90
39899;DHT22;25571;47.876;10.642;2023-05-29T05:50:12;13.60;99.90
39899;DHT22;25571;47.876;10.642;2023-05-29T05:52:38;13.80;99.90
39899;DHT22;25571;47.876;10.642;2023-05-29T05:55:04;13.80;99.90
39899;DHT22;25571;47.876;10.642;2023-05-29T05:57:30;13.90;99.90
39899;DHT22;25571;47.876;10.642;2023-05-29T05:59:58;13.90;99.90
39899;DHT22;25571;47.876;10.642;2023-05-29T06:02:23;14.00;99.90
39899;DHT22;25571;47.876;10.642;2023-05-29T06:04:49;14.00;99.90
39899;DHT22;25571;47.876;10.642;2023-05-29T06:07:15;14.20;99.90
39899;DHT22;25571;47.876;10.642;2023-05-29T06:09:40;14.30;99.90
39899;DHT22;25571;47.876;10.642;2023-05-29T06:12:07;14.40;99.90
39899;DHT22;25571;47.876;10.642;2023-05-29T06:14:33;14.60;99.90
39899;DHT22;25571;47.876;10.642;2023-05-29T06:17:00;14.80;99.90
39899;DHT22;25571;47.876;10.642;2023-05-29T06:19:25;15.00;99.90
39899;DHT22;25571;47.876;10.642;2023-05-29T06:21:51;15.00;99.90
39899;DHT22;25571;47.876;10.642;2023-05-29T06:24:16;15.30;99.70
39899;DHT22;25571;47.876;10.642;2023-05-29T06:26:42;15.30;99.00
39899;DHT22;25571;47.876;10.642;2023-05-29T06:29:07;15.40;98.80
39899;DHT22;25571;47.876;10.642;2023-05-29T06:31:33;15.60;98.80
39899;DHT22;25571;47.876;10.642;2023-05-29T06:33:59;15.80;97.20
39899;DHT22;25571;47.876;10.642;2023-05-29T06:36:25;15.90;97.60
39899;DHT22;25571;47.876;10.642;2023-05-29T06:38:51;16.00;96.60
39899;DHT22;25571;47.876;10.642;2023-05-29T06:41:17;16.10;95.50
39899;DHT22;25571;47.876;10.642;2023-05-29T06:43:43;16.20;95.90
39899;DHT22;25571;47.876;10.642;2023-05-29T06:46:09;16.50;96.20
39899;DHT22;25571;47.876;10.642;2023-05-29T06:48:35;16.60;94.90
39899;DHT22;25571;47.876;10.642;2023-05-29T06:51:02;16.70;94.40
39899;DHT22;25571;47.876;10.642;2023-05-29T06:53:38;16.80;94.20
39899;DHT22;25571;47.876;10.642;2023-05-29T06:56:04;17.00;94.60
39899;DHT22;25571;47.876;10.642;2023-05-29T06:58:30;17.10;94.30
39899;DHT22;25571;47.876;10.642;2023-05-29T07:00:56;17.20;94.10
39899;DHT22;25571;47.876;10.642;2023-05-29T07:03:22;17.20;93.60
39899;DHT22;25571;47.876;10.642;2023-05-29T07:05:48;17.40;93.90
39899;DHT22;25571;47.876;10.642;2023-05-29T07:08:13;17.50;93.10
39899;DHT22;25571;47.876;10.642;2023-05-29T07:10:39;17.70;92.60
39899;DHT22;25571;47.876;10.642;2023-05-29T07:13:04;17.70;92.60
39899;DHT22;25571;47.876;10.642;2023-05-29T07:15:31;17.90;92.10
39899;DHT22;25571;47.876;10.642;2023-05-29T07:17:57;18.10;92.90
39899;DHT22;25571;47.876;10.642;2023-05-29T07:20:23;18.30;91.90
39899;DHT22;25571;47.876;10.642;2023-05-29T07:22:48;18.30;91.80
39899;DHT22;25571;47.876;10.642;2023-05-29T07:25:14;18.40;91.90
39899;DHT22;25571;47.876;10.642;2023-05-29T07:27:39;18.50;91.70
39899;DHT22;25571;47.876;10.642;2023-05-29T07:30:05;18.60;91.60
39899;DHT22;25571;47.876;10.642;2023-05-29T07:32:32;18.80;91.50
39899;DHT22;25571;47.876;10.642;2023-05-29T07:34:57;19.00;91.20
39899;DHT22;25571;47.876;10.642;2023-05-29T07:37:23;19.10;91.10
39899;DHT22;25571;47.876;10.642;2023-05-29T07:39:48;19.30;91.10
39899;DHT22;25571;47.876;10.642;2023-05-29T07:42:14;19.50;90.60
39899;DHT22;25571;47.876;10.642;2023-05-29T07:44:40;19.60;90.10
39899;DHT22;25571;47.876;10.642;2023-05-29T07:47:08;19.70;89.90
39899;DHT22;25571;47.876;10.642;2023-05-29T07:49:34;19.90;90.30
39899;DHT22;25571;47.876;10.642;2023-05-29T07:52:03;20.10;90.00
39899;DHT22;25571;47.876;10.642;2023-05-29T07:54:30;20.30;88.50
39899;DHT22;25571;47.876;10.642;2023-05-29T07:56:58;20.60;87.80
39899;DHT22;25571;47.876;10.642;2023-05-29T07:59:24;21.00;86.00
39899;DHT22;25571;47.876;10.642;2023-05-29T08:01:50;21.40;84.30
39899;DHT22;25571;47.876;10.642;2023-05-29T08:04:16;22.20;81.10
39899;DHT22;25571;47.876;10.642;2023-05-29T08:06:41;22.80;78.40
39899;DHT22;25571;47.876;10.642;2023-05-29T08:09:07;23.50;77.20
39899;DHT22;25571;47.876;10.642;2023-05-29T08:11:33;24.50;74.20
39899;DHT22;25571;47.876;10.642;2023-05-29T08:13:59;25.80;70.90
39899;DHT22;25571;47.876;10.642;2023-05-29T08:16:25;28.60;64.90
39899;DHT22;25571;47.876;10.642;2023-05-29T08:18:52;31.00;57.30
39899;DHT22;25571;47.876;10.642;2023-05-29T08:21:18;29.70;55.60
39899;DHT22;25571;47.876;10.642;2023-05-29T08:23:43;30.40;53.80
39899;DHT22;25571;47.876;10.642;2023-05-29T08:26:09;33.50;50.00
39899;DHT22;25571;47.876;10.642;2023-05-29T08:28:35;34.90;45.30
39899;DHT22;25571;47.876;10.642;2023-05-29T08:31:00;35.60;43.10
39899;DHT22;25571;47.876;10.642;2023-05-29T08:33:26;35.80;42.30
39899;DHT22;25571;47.876;10.642;2023-05-29T08:35:51;38.90;39.10
39899;DHT22;25571;47.876;10.642;2023-05-29T08:38:17;40.30;35.80
39899;DHT22;25571;47.876;10.642;2023-05-29T08:40:43;40.70;34.80
39899;DHT22;25571;47.876;10.642;2023-05-29T08:43:21;41.90;33.00
39899;DHT22;25571;47.876;10.642;2023-05-29T08:45:50;43.70;32.00
39899;DHT22;25571;47.876;10.642;2023-05-29T08:48:18;43.60;30.00
39899;DHT22;25571;47.876;10.642;2023-05-29T08:50:45;44.10;29.60
39899;DHT22;25571;47.876;10.642;2023-05-29T08:53:15;43.50;29.20
39899;DHT22;25571;47.876;10.642;2023-05-29T08:55:42;43.90;27.90
39899;DHT22;25571;47.876;10.642;2023-05-29T08:58:08;43.50;29.30
39899;DHT22;25571;47.876;10.642;2023-05-29T09:00:35;43.80;28.90
39899;DHT22;25571;47.876;10.642;2023-05-29T09:03:02;41.40;29.50
39899;DHT22;25571;47.876;10.642;2023-05-29T09:05:28;39.10;30.20
39899;DHT22;25571;47.876;10.642;2023-05-29T09:07:55;37.30;33.10
39899;DHT22;25571;47.876;10.642;2023-05-29T09:10:21;36.00;33.50
39899;DHT22;25571;47.876;10.642;2023-05-29T09:12:48;34.30;35.70
39899;DHT22;25571;47.876;10.642;2023-05-29T09:15:20;33.00;37.10
39899;DHT22;25571;47.876;10.642;2023-05-29T09:17:50;31.90;39.20
39899;DHT22;25571;47.876;10.642;2023-05-29T09:20:17;31.30;41.20
39899;DHT22;25571;47.876;10.642;2023-05-29T09:25:19;29.30;42.20
39899;DHT22;25571;47.876;10.642;2023-05-29T09:27:50;28.50;43.80
39899;DHT22;25571;47.876;10.642;2023-05-29T09:30:37;28.10;45.10
39899;DHT22;25571;47.876;10.642;2023-05-29T09:33:04;27.40;45.60
39899;DHT22;25571;47.876;10.642;2023-05-29T09:35:34;26.60;45.90
39899;DHT22;25571;47.876;10.642;2023-05-29T09:38:00;26.30;48.40
39899;DHT22;25571;47.876;10.642;2023-05-29T09:40:28;25.90;46.40
39899;DHT22;25571;47.876;10.642;2023-05-29T09:42:54;25.60;46.70
39899;DHT22;25571;47.876;10.642;2023-05-29T09:45:21;25.40;47.50
39899;DHT22;25571;47.876;10.642;2023-05-29T09:47:47;25.30;49.20
39899;DHT22;25571;47.876;10.642;2023-05-29T09:50:19;25.00;48.80
39899;DHT22;25571;47.876;10.642;2023-05-29T09:52:48;24.70;50.30
39899;DHT22;25571;47.876;10.642;2023-05-29T09:55:19;24.60;49.20
39899;DHT22;25571;47.876;10.642;2023-05-29T09:57:46;24.40;51.30
39899;DHT22;25571;47.876;10.642;2023-05-29T10:00:14;23.90;50.60
39899;DHT22;25571;47.876;10.642;2023-05-29T10:02:40;23.70;52.50
39899;DHT22;25571;47.876;10.642;2023-05-29T10:05:06;23.50;52.60
39899;DHT22;25571;47.876;10.642;2023-05-29T10:07:37;23.80;51.80
39899;DHT22;25571;47.876;10.642;2023-05-29T10:10:06;23.70;52.40
39899;DHT22;25571;47.876;10.642;2023-05-29T10:12:38;23.90;53.20
39899;DHT22;25571;47.876;10.642;2023-05-29T10:15:10;23.80;52.00
39899;DHT22;25571;47.876;10.642;2023-05-29T10:17:38;23.80;50.50
39899;DHT22;25571;47.876;10.642;2023-05-29T10:20:06;23.70;51.40
39899;DHT22;25571;47.876;10.642;2023-05-29T10:22:39;23.40;52.80
39899;DHT22;25571;47.876;10.642;2023-05-29T10:25:07;23.40;52.60
39899;DHT22;25571;47.876;10.642;2023-05-29T10:27:35;23.40;51.50
39899;DHT22;25571;47.876;10.642;2023-05-29T10:30:13;23.40;52.30
39899;DHT22;25571;47.876;10.642;2023-05-29T10:35:27;23.40;53.40
39899;DHT22;25571;47.876;10.642;2023-05-29T10:38:10;23.50;52.80
39899;DHT22;25571;47.876;10.642;2023-05-29T10:40:37;23.40;51.10
39899;DHT22;25571;47.876;10.642;2023-05-29T10:43:02;23.50;52.40
39899;DHT22;25571;47.876;10.642;2023-05-29T10:47:56;23.40;52.70
39899;DHT22;25571;47.876;10.642;2023-05-29T10:53:08;23.30;52.70
39899;DHT22;25571;47.876;10.642;2023-05-29T10:55:39;23.40;53.50
39899;DHT22;25571;47.876;10.642;2023-05-29T10:58:06;23.30;53.70
39899;DHT22;25571;47.876;10.642;2023-05-29T11:00:32;23.20;55.40
39899;DHT22;25571;47.876;10.642;2023-05-29T11:03:04;23.00;53.70
39899;DHT22;25571;47.876;10.642;2023-05-29T11:05:30;23.00;54.60
39899;DHT22;25571;47.876;10.642;2023-05-29T11:07:57;23.10;54.50
39899;DHT22;25571;47.876;10.642;2023-05-29T11:10:43;23.10;55.90
39899;DHT22;25571;47.876;10.642;2023-05-29T11:13:10;23.00;54.10
39899;DHT22;25571;47.876;10.642;2023-05-29T11:15:37;23.10;55.50
39899;DHT22;25571;47.876;10.642;2023-05-29T11:18:11;23.10;55.70
39899;DHT22;25571;47.876;10.642;2023-05-29T11:20:57;23.10;55.00
39899;DHT22;25571;47.876;10.642;2023-05-29T11:23:24;23.00;54.00
39899;DHT22;25571;47.876;10.642;2023-05-29T11:25:55;23.10;54.50
39899;DHT22;25571;47.876;10.642;2023-05-29T11:28:21;23.10;53.60
39899;DHT22;25571;47.876;10.642;2023-05-29T11:30:47;22.90;53.60
39899;DHT22;25571;47.876;10.642;2023-05-29T11:33:26;22.90;55.40
39899;DHT22;25571;47.876;10.642;2023-05-29T11:35:59;23.00;53.70
39899;DHT22;25571;47.876;10.642;2023-05-29T11:38:26;22.70;55.20
39899;DHT22;25571;47.876;10.642;2023-05-29T11:40:53;22.90;55.50
39899;DHT22;25571;47.876;10.642;2023-05-29T11:43:19;22.90;54.50
39899;DHT22;25571;47.876;10.642;2023-05-29T11:45:45;22.80;55.10
39899;DHT22;25571;47.876;10.642;2023-05-29T11:48:11;22.80;52.90
39899;DHT22;25571;47.876;10.642;2023-05-29T11:50:37;22.70;53.70
39899;DHT22;25571;47.876;10.642;2023-05-29T11:53:03;22.70;53.10
39899;DHT22;25571;47.876;10.642;2023-05-29T11:55:30;22.80;55.50
39899;DHT22;25571;47.876;10.642;2023-05-29T11:57:58;22.70;54.30
39899;DHT22;25571;47.876;10.642;2023-05-29T12:00:24;22.90;54.90
39899;DHT22;25571;47.876;10.642;2023-05-29T12:02:51;22.80;53.60
39899;DHT22;25571;47.876;10.642;2023-05-29T12:05:18;22.70;54.40
39899;DHT22;25571;47.876;10.642;2023-05-29T12:07:54;22.60;54.50
39899;DHT22;25571;47.876;10.642;2023-05-29T12:10:22;22.50;54.00
39899;DHT22;25571;47.876;10.642;2023-05-29T12:12:58;22.60;54.20
39899;DHT22;25571;47.876;10.642;2023-05-29T12:15:25;22.60;54.30
39899;DHT22;25571;47.876;10.642;2023-05-29T12:17:52;22.60;53.70
39899;DHT22;25571;47.876;10.642;2023-05-29T12:20:19;22.60;54.00
39899;DHT22;25571;47.876;10.642;2023-05-29T12:22:45;22.60;53.70
39899;DHT22;25571;47.876;10.642;2023-05-29T12:25:19;22.50;52.40
39899;DHT22;25571;47.876;10.642;2023-05-29T12:27:46;22.50;54.10
39899;DHT22;25571;47.876;10.642;2023-05-29T12:32:43;22.60;54.20
39899;DHT22;25571;47.876;10.642;2023-05-29T12:35:17;22.50;54.60
39899;DHT22;25571;47.876;10.642;2023-05-29T12:37:57;22.40;54.00
39899;DHT22;25571;47.876;10.642;2023-05-29T12:40:23;22.40;53.00
39899;DHT22;25571;47.876;10.642;2023-05-29T12:42:55;22.50;52.80
39899;DHT22;25571;47.876;10.642;2023-05-29T12:45:26;22.60;53.60
39899;DHT22;25571;47.876;10.642;2023-05-29T12:47:53;22.50;52.60
39899;DHT22;25571;47.876;10.642;2023-05-29T12:52:55;22.50;53.10
39899;DHT22;25571;47.876;10.642;2023-05-29T12:55:21;22.40;50.30
39899;DHT22;25571;47.876;10.642;2023-05-29T12:57:46;22.40;50.30
39899;DHT22;25571;47.876;10.642;2023-05-29T13:00:13;22.50;51.20
39899;DHT22;25571;47.876;10.642;2023-05-29T13:02:39;22.40;52.40
39899;DHT22;25571;47.876;10.642;2023-05-29T13:05:05;22.50;49.40
39899;DHT22;25571;47.876;10.642;2023-05-29T13:07:31;22.30;51.50
39899;DHT22;25571;47.876;10.642;2023-05-29T13:09:57;22.40;51.30
39899;DHT22;25571;47.876;10.642;2023-05-29T13:12:22;22.40;52.20
39899;DHT22;25571;47.876;10.642;2023-05-29T13:14:48;22.40;49.50
39899;DHT22;25571;47.876;10.642;2023-05-29T13:17:13;22.30;49.90
39899;DHT22;25571;47.876;10.642;2023-05-29T13:19:39;22.30;50.00
39899;DHT22;25571;47.876;10.642;2023-05-29T13:22:05;22.20;49.30
39899;DHT22;25571;47.876;10.642;2023-05-29T13:24:30;22.10;51.00
39899;DHT22;25571;47.876;10.642;2023-05-29T13:26:56;22.20;49.70
39899;DHT22;25571;47.876;10.642;2023-05-29T13:29:21;21.90;50.80
39899;DHT22;25571;47.876;10.642;2023-05-29T13:31:47;22.10;51.60
39899;DHT22;25571;47.876;10.642;2023-05-29T13:34:12;22.10;51.80
39899;DHT22;25571;47.876;10.642;2023-05-29T13:36:38;21.90;50.40
39899;DHT22;25571;47.876;10.642;2023-05-29T13:39:04;21.90;50.70
39899;DHT22;25571;47.876;10.642;2023-05-29T13:41:30;21.90;52.40
39899;DHT22;25571;47.876;10.642;2023-05-29T13:43:56;21.90;52.50
39899;DHT22;25571;47.876;10.642;2023-05-29T13:46:22;21.90;52.10
39899;DHT22;25571;47.876;10.642;2023-05-29T13:48:47;21.80;52.50
39899;DHT22;25571;47.876;10.642;2023-05-29T13:51:13;21.80;51.20
39899;DHT22;25571;47.876;10.642;2023-05-29T13:53:38;21.80;51.20
39899;DHT22;25571;47.876;10.642;2023-05-29T13:56:04;21.80;52.20
39899;DHT22;25571;47.876;10.642;2023-05-29T13:58:30;21.80;52.90
39899;DHT22;25571;47.876;10.642;2023-05-29T14:00:55;21.80;52.30
39899;DHT22;25571;47.876;10.642;2023-05-29T14:03:21;21.80;52.20
39899;DHT22;25571;47.876;10.642;2023-05-29T14:05:49;21.80;53.70
39899;DHT22;25571;47.876;10.642;2023-05-29T14:08:15;21.80;54.70
39899;DHT22;25571;47.876;10.642;2023-05-29T14:10:40;21.80;53.60
39899;DHT22;25571;47.876;10.642;2023-05-29T14:13:06;21.80;52.50
39899;DHT22;25571;47.876;10.642;2023-05-29T14:15:32;21.80;52.70
39899;DHT22;25571;47.876;10.642;2023-05-29T14:17:57;21.70;52.60
39899;DHT22;25571;47.876;10.642;2023-05-29T14:20:23;21.80;52.20
39899;DHT22;25571;47.876;10.642;2023-05-29T14:22:49;21.90;53.90
39899;DHT22;25571;47.876;10.642;2023-05-29T14:25:14;21.90;54.90
39899;DHT22;25571;47.876;10.642;2023-05-29T14:27:40;21.90;54.20
39899;DHT22;25571;47.876;10.642;2023-05-29T14:30:06;21.90;54.10
39899;DHT22;25571;47.876;10.642;2023-05-29T14:32:32;21.90;52.20
39899;DHT22;25571;47.876;10.642;2023-05-29T14:34:57;21.90;52.00
39899;DHT22;25571;47.876;10.642;2023-05-29T14:37:23;21.80;51.00
39899;DHT22;25571;47.876;10.642;2023-05-29T14:39:49;21.80;51.00
39899;DHT22;25571;47.876;10.642;2023-05-29T14:42:15;21.80;52.70
39899;DHT22;25571;47.876;10.642;2023-05-29T14:44:41;21.70;53.50
39899;DHT22;25571;47.876;10.642;2023-05-29T14:47:07;21.80;55.20
39899;DHT22;25571;47.876;10.642;2023-05-29T14:49:32;21.80;55.20
39899;DHT22;25571;47.876;10.642;2023-05-29T14:51:59;21.70;55.50
39899;DHT22;25571;47.876;10.642;2023-05-29T14:54:25;21.80;55.00
39899;DHT22;25571;47.876;10.642;2023-05-29T14:56:50;21.70;52.20
39899;DHT22;25571;47.876;10.642;2023-05-29T14:59:16;21.70;54.00
39899;DHT22;25571;47.876;10.642;2023-05-29T15:01:41;21.70;54.80
39899;DHT22;25571;47.876;10.642;2023-05-29T15:04:07;21.70;55.60
39899;DHT22;25571;47.876;10.642;2023-05-29T15:06:32;21.70;53.90
39899;DHT22;25571;47.876;10.642;2023-05-29T15:08:58;21.70;52.90
39899;DHT22;25571;47.876;10.642;2023-05-29T15:11:28;21.70;54.50
39899;DHT22;25571;47.876;10.642;2023-05-29T15:13:53;21.70;54.80
39899;DHT22;25571;47.876;10.642;2023-05-29T15:16:19;21.70;55.20
39899;DHT22;25571;47.876;10.642;2023-05-29T15:18:45;21.70;55.60
39899;DHT22;25571;47.876;10.642;2023-05-29T15:21:10;21.70;55.10
39899;DHT22;25571;47.876;10.642;2023-05-29T15:23:36;21.70;55.20
39899;DHT22;25571;47.876;10.642;2023-05-29T15:26:04;21.60;54.90
39899;DHT22;25571;47.876;10.642;2023-05-29T15:28:30;21.60;56.30
39899;DHT22;25571;47.876;10.642;2023-05-29T15:30:55;21.60;55.20
39899;DHT22;25571;47.876;10.642;2023-05-29T15:33:22;21.60;56.10
39899;DHT22;25571;47.876;10.642;2023-05-29T15:35:47;21.50;56.50
39899;DHT22;25571;47.876;10.642;2023-05-29T15:38:15;21.50;55.60